Time,TemperatureF,DewpointF,PressureIn,WindDirection,WindDirectionDegrees,WindSpeedMPH,WindSpeedGustMPH,Humidity,HourlyPrecipIn,Conditions,Clouds,dailyrainin,SoftwareType,DateUTC
2013-05-10 00:08:00,58.8,56.0,30.12,NE,34,0.0,0.0,89,0.00,,,0.00,weatherlink.com 1.10,2013-05-10 04:08:00,
2013-05-10 00:23:00,58.3,56.0,30.12,NE,34,0.0,0.0,90,0.00,,,0.00,weatherlink.com 1.10,2013-05-10 04:23:00,
2013-05-10 00:38:00,57.8,55.0,30.12,NE,34,0.0,0.0,90,0.00,,,0.00,weatherlink.com 1.10,2013-05-10 04:38:00,
2013-05-10 00:53:00,57.4,55.0,30.12,NE,34,0.0,0.0,91,0.00,,,0.00,weatherlink.com 1.10,2013-05-10 04:53:00,
2013-05-10 01:08:00,57.0,55.0,30.12,NE,34,0.0,0.0,92,0.00,,,0.00,weatherlink.com 1.10,2013-05-10 05:08:00,
2013-05-10 01:23:00,56.6,54.0,30.12,NE,34,0.0,0.0,92,0.00,,,0.00,weatherlink.com 1.10,2013-05-10 05:23:00,
2013-05-10 01:38:00,56.4,55.0,30.12,NE,34,0.0,0.0,93,0.00,,,0.00,weatherlink.com 1.10,2013-05-10 05:38:00,
2013-05-10 01:53:00,56.1,54.0,30.11,NE,34,0.0,0.0,93,0.00,,,0.00,weatherlink.com 1.10,2013-05-10 05:53:00,
2013-05-10 02:08:00,55.8,54.0,30.10,NE,34,0.0,0.0,93,0.00,,,0.00,weatherlink.com 1.10,2013-05-10 06:08:00,
2013-05-10 02:23:00,55.6,54.0,30.10,NNE,33,0.0,0.0,93,0.00,,,0.00,weatherlink.com 1.10,2013-05-10 06:23:00,
2013-05-10 02:38:00,55.4,54.0,30.09,NNE,33,0.0,0.0,94,0.00,,,0.00,weatherlink.com 1.10,2013-05-10 06:38:00,
2013-05-10 02:53:00,55.3,54.0,30.09,NNE,33,0.0,0.0,94,0.00,,,0.00,weatherlink.com 1.10,2013-05-10 06:53:00,
2013-05-10 03:08:00,55.1,54.0,30.08,NNE,33,0.0,0.0,94,0.00,,,0.00,weatherlink.com 1.10,2013-05-10 07:08:00,
2013-05-10 03:23:00,54.8,53.0,30.08,NNE,33,0.0,0.0,94,0.00,,,0.00,weatherlink.com 1.10,2013-05-10 07:23:00,
2013-05-10 03:38:00,54.5,53.0,30.07,NNE,33,0.0,0.0,94,0.00,,,0.00,weatherlink.com 1.10,2013-05-10 07:38:00,
2013-05-10 03:53:00,54.3,53.0,30.07,NNE,33,0.0,0.0,94,0.00,,,0.00,weatherlink.com 1.10,2013-05-10 07:53:00,
2013-05-10 04:08:00,54.3,53.0,30.07,NNE,33,0.0,0.0,94,0.00,,,0.00,weatherlink.com 1.10,2013-05-10 08:08:00,
2013-05-10 04:23:00,54.2,53.0,30.06,NNE,33,0.0,0.0,94,0.00,,,0.00,weatherlink.com 1.10,2013-05-10 08:23:00,
2013-05-10 04:38:00,54.0,52.0,30.05,NNE,33,0.0,0.0,94,0.00,,,0.00,weatherlink.com 1.10,2013-05-10 08:38:00,
2013-05-10 04:53:00,53.9,52.0,30.06,NNE,33,0.0,0.0,94,0.00,,,0.00,weatherlink.com 1.10,2013-05-10 08:53:00,
2013-05-10 05:08:00,53.7,52.0,30.05,NNE,33,0.0,0.0,94,0.00,,,0.00,weatherlink.com 1.10,2013-05-10 09:08:00,
2013-05-10 05:23:00,53.6,52.0,30.05,NNE,33,0.0,0.0,95,0.00,,,0.00,weatherlink.com 1.10,2013-05-10 09:23:00,
2013-05-10 05:38:00,53.4,52.0,30.05,NNE,33,0.0,0.0,95,0.00,,,0.00,weatherlink.com 1.10,2013-05-10 09:38:00,
2013-05-10 05:53:00,53.2,52.0,30.05,NNE,33,0.0,0.0,95,0.00,,,0.00,weatherlink.com 1.10,2013-05-10 09:53:00,
2013-05-10 06:08:00,53.0,52.0,30.05,NNE,33,0.0,0.0,95,0.00,,,0.00,weatherlink.com 1.10,2013-05-10 10:08:00,
2013-05-10 06:23:00,52.9,52.0,30.05,NNE,33,0.0,0.0,95,0.00,,,0.00,weatherlink.com 1.10,2013-05-10 10:23:00,
2013-05-10 06:38:00,52.8,52.0,30.05,NNE,33,0.0,0.0,95,0.00,,,0.00,weatherlink.com 1.10,2013-05-10 10:38:00,
2013-05-10 06:53:00,52.7,51.0,30.07,NNE,33,0.0,0.0,95,0.00,,,0.00,weatherlink.com 1.10,2013-05-10 10:53:00,
2013-05-10 07:08:00,52.6,51.0,30.07,NNE,33,0.0,0.0,95,0.00,,,0.00,weatherlink.com 1.10,2013-05-10 11:08:00,
2013-05-10 07:23:00,52.9,52.0,30.07,NNE,33,0.0,0.0,95,0.00,,,0.00,weatherlink.com 1.10,2013-05-10 11:23:00,
2013-05-10 07:38:00,53.6,52.0,30.07,NNE,33,0.0,0.0,95,0.00,,,0.00,weatherlink.com 1.10,2013-05-10 11:38:00,
2013-05-10 07:54:00,54.6,53.0,30.08,NNE,33,0.0,0.0,95,0.00,,,0.00,weatherlink.com 1.10,2013-05-10 11:54:00,
2013-05-10 08:09:00,55.7,54.0,30.07,NNE,33,0.0,0.0,95,0.00,,,0.00,weatherlink.com 1.10,2013-05-10 12:09:00,
2013-05-10 08:24:00,57.1,56.0,30.07,NNE,33,0.0,0.0,95,0.00,,,0.00,weatherlink.com 1.10,2013-05-10 12:24:00,
2013-05-10 08:39:00,58.1,57.0,30.07,WSW,238,0.0,0.0,95,0.00,,,0.00,weatherlink.com 1.10,2013-05-10 12:39:00,
2013-05-10 08:54:00,59.0,58.0,30.08,WSW,238,0.0,0.0,95,0.00,,,0.00,weatherlink.com 1.10,2013-05-10 12:54:00,
2013-05-10 09:09:00,59.7,58.0,30.08,WSW,238,0.0,0.0,94,0.00,,,0.00,weatherlink.com 1.10,2013-05-10 13:09:00,
2013-05-10 09:24:00,61.2,60.0,30.09,WSW,238,0.0,0.0,94,0.00,,,0.00,weatherlink.com 1.10,2013-05-10 13:24:00,
2013-05-10 09:39:00,63.5,61.0,30.08,NE,39,0.0,0.0,92,0.00,,,0.00,weatherlink.com 1.10,2013-05-10 13:39:00,
2013-05-10 09:54:00,65.2,61.0,30.07,WSW,253,1.0,3.0,85,0.00,,,0.00,weatherlink.com 1.10,2013-05-10 13:54:00,
2013-05-10 10:09:00,67.9,62.0,30.08,SE,143,0.0,3.0,81,0.00,,,0.00,weatherlink.com 1.10,2013-05-10 14:09:00,
2013-05-10 10:24:00,68.8,61.0,30.08,SE,136,3.0,5.0,75,0.00,,,0.00,weatherlink.com 1.10,2013-05-10 14:24:00,
2013-05-10 10:39:00,67.9,60.0,30.09,East,92,2.0,6.0,76,0.00,,,0.00,weatherlink.com 1.10,2013-05-10 14:39:00,
2013-05-10 10:54:00,67.9,60.0,30.09,SSW,195,2.0,4.0,75,0.00,,,0.00,weatherlink.com 1.10,2013-05-10 14:54:00,
2013-05-10 11:09:00,69.2,59.0,30.09,ESE,113,3.0,5.0,70,0.00,,,0.00,weatherlink.com 1.10,2013-05-10 15:09:00,
2013-05-10 11:24:00,69.9,59.0,30.09,SE,124,3.0,6.0,69,0.00,,,0.00,weatherlink.com 1.10,2013-05-10 15:24:00,
2013-05-10 11:39:00,70.9,60.0,30.09,SE,140,1.0,4.0,68,0.00,,,0.00,weatherlink.com 1.10,2013-05-10 15:39:00,
2013-05-10 11:54:00,71.9,59.0,30.08,SSE,153,2.0,5.0,65,0.00,,,0.00,weatherlink.com 1.10,2013-05-10 15:54:00,
2013-05-10 12:09:00,72.3,61.0,30.08,North,9,0.0,5.0,68,0.00,,,0.00,weatherlink.com 1.10,2013-05-10 16:09:00,
2013-05-10 12:24:00,72.2,61.0,30.08,NNE,19,0.0,2.0,68,0.00,,,0.00,weatherlink.com 1.10,2013-05-10 16:24:00,
2013-05-10 12:39:00,71.1,60.0,30.08,SSE,151,1.0,3.0,69,0.00,,,0.00,weatherlink.com 1.10,2013-05-10 16:39:00,
2013-05-10 12:54:00,71.0,60.0,30.08,East,81,1.0,3.0,69,0.00,,,0.00,weatherlink.com 1.10,2013-05-10 16:54:00,
2013-05-10 13:09:00,70.8,60.0,30.08,SE,141,1.0,4.0,69,0.00,,,0.00,weatherlink.com 1.10,2013-05-10 17:09:00,
2013-05-10 13:24:00,71.0,59.0,30.07,SE,133,1.0,4.0,67,0.00,,,0.00,weatherlink.com 1.10,2013-05-10 17:24:00,
2013-05-10 13:39:00,71.4,59.0,30.06,SW,231,0.0,4.0,66,0.00,,,0.00,weatherlink.com 1.10,2013-05-10 17:39:00,
2013-05-10 13:54:00,72.3,60.0,30.06,SSW,208,1.0,3.0,65,0.00,,,0.00,weatherlink.com 1.10,2013-05-10 17:54:00,
2013-05-10 14:09:00,72.9,58.0,30.06,ENE,65,0.0,3.0,59,0.00,,,0.00,weatherlink.com 1.10,2013-05-10 18:09:00,
2013-05-10 14:24:00,74.1,58.0,30.06,NE,56,1.0,3.0,58,0.00,,,0.00,weatherlink.com 1.10,2013-05-10 18:24:00,
2013-05-10 14:39:00,74.1,58.0,30.05,ESE,120,1.0,2.0,58,0.00,,,0.00,weatherlink.com 1.10,2013-05-10 18:39:00,
2013-05-10 14:54:00,73.2,58.0,30.05,SSE,165,1.0,4.0,59,0.00,,,0.00,weatherlink.com 1.10,2013-05-10 18:54:00,
2013-05-10 15:09:00,72.8,58.0,30.04,SE,146,0.0,4.0,60,0.00,,,0.00,weatherlink.com 1.10,2013-05-10 19:09:00,
2013-05-10 15:24:00,72.7,56.0,30.03,South,188,2.0,10.0,57,0.00,,,0.00,weatherlink.com 1.10,2013-05-10 19:24:00,
2013-05-10 15:40:00,72.8,57.0,30.02,ESE,114,1.0,3.0,59,0.00,,,0.00,weatherlink.com 1.10,2013-05-10 19:40:00,
2013-05-10 15:54:00,72.9,56.0,30.02,West,277,3.0,4.0,56,0.00,,,0.00,weatherlink.com 1.10,2013-05-10 19:54:00,
2013-05-10 16:10:00,71.8,57.0,30.01,SSE,148,2.0,4.0,59,0.00,,,0.00,weatherlink.com 1.10,2013-05-10 20:10:00,
2013-05-10 16:25:00,70.9,55.0,30.01,SE,138,1.0,3.0,58,0.00,,,0.00,weatherlink.com 1.10,2013-05-10 20:25:00,
2013-05-10 16:40:00,70.2,56.0,30.02,SE,142,1.0,2.0,61,0.00,,,0.00,weatherlink.com 1.10,2013-05-10 20:40:00,
2013-05-10 16:55:00,69.6,57.0,30.01,East,79,0.0,1.0,64,0.00,,,0.00,weatherlink.com 1.10,2013-05-10 20:55:00,
2013-05-10 17:10:00,69.0,58.0,30.02,ESE,105,0.0,1.0,67,0.00,,,0.00,weatherlink.com 1.10,2013-05-10 21:10:00,
2013-05-10 17:25:00,68.6,57.0,30.01,SW,225,0.0,2.0,66,0.00,,,0.00,weatherlink.com 1.10,2013-05-10 21:25:00,
2013-05-10 17:40:00,68.7,56.0,30.01,SE,127,1.0,2.0,64,0.00,,,0.00,weatherlink.com 1.10,2013-05-10 21:40:00,
2013-05-10 17:55:00,68.8,55.0,29.99,SE,132,0.0,2.0,61,0.00,,,0.00,weatherlink.com 1.10,2013-05-10 21:55:00,
2013-05-10 18:10:00,69.5,56.0,29.99,SW,224,1.0,2.0,62,0.00,,,0.00,weatherlink.com 1.10,2013-05-10 22:10:00,
2013-05-10 18:25:00,69.8,56.0,29.98,SW,217,1.0,3.0,61,0.00,,,0.00,weatherlink.com 1.10,2013-05-10 22:25:00,
2013-05-10 18:40:00,69.9,57.0,29.98,WSW,238,1.0,4.0,63,0.00,,,0.00,weatherlink.com 1.10,2013-05-10 22:40:00,
2013-05-10 18:55:00,69.5,57.0,29.99,SSW,197,0.0,1.0,64,0.00,,,0.00,weatherlink.com 1.10,2013-05-10 22:55:00,
2013-05-10 19:10:00,68.8,56.0,29.99,SW,231,0.0,1.0,64,0.00,,,0.00,weatherlink.com 1.10,2013-05-10 23:10:00,
2013-05-10 19:25:00,68.6,57.0,29.99,SW,228,1.0,1.0,66,0.00,,,0.00,weatherlink.com 1.10,2013-05-10 23:25:00,
2013-05-10 19:40:00,67.9,57.0,29.98,SE,126,0.0,1.0,68,0.00,,,0.00,weatherlink.com 1.10,2013-05-10 23:40:00,
2013-05-10 19:55:00,66.7,56.0,29.98,ENE,69,1.0,2.0,69,0.00,,,0.00,weatherlink.com 1.10,2013-05-10 23:55:00,
2013-05-10 20:10:00,65.5,56.0,29.98,ENE,69,1.0,1.0,71,0.00,,,0.00,weatherlink.com 1.10,2013-05-11 00:10:00,
2013-05-10 20:25:00,64.7,56.0,29.98,ENE,70,0.0,1.0,74,0.00,,,0.00,weatherlink.com 1.10,2013-05-11 00:25:00,
2013-05-10 20:40:00,63.9,56.0,29.99,ENE,70,0.0,1.0,76,0.00,,,0.00,weatherlink.com 1.10,2013-05-11 00:40:00,
2013-05-10 20:55:00,63.6,56.0,29.99,ENE,71,0.0,0.0,77,0.00,,,0.00,weatherlink.com 1.10,2013-05-11 00:55:00,
2013-05-10 21:10:00,63.1,57.0,30.00,ENE,70,0.0,0.0,79,0.00,,,0.00,weatherlink.com 1.10,2013-05-11 01:10:00,
2013-05-10 21:25:00,62.7,57.0,30.00,ENE,62,0.0,2.0,81,0.00,,,0.00,weatherlink.com 1.10,2013-05-11 01:25:00,
2013-05-10 21:40:00,62.8,57.0,30.00,ENE,62,0.0,1.0,81,0.00,,,0.00,weatherlink.com 1.10,2013-05-11 01:40:00,
2013-05-10 21:55:00,62.7,57.0,30.00,ENE,62,0.0,0.0,82,0.00,,,0.00,weatherlink.com 1.10,2013-05-11 01:55:00,
2013-05-10 22:10:00,62.4,57.0,30.01,ENE,62,0.0,0.0,83,0.00,,,0.00,weatherlink.com 1.10,2013-05-11 02:10:00,
2013-05-10 22:25:00,62.6,57.0,30.01,SSW,207,0.0,0.0,83,0.00,,,0.00,weatherlink.com 1.10,2013-05-11 02:25:00,
2013-05-10 22:40:00,62.5,57.0,30.00,SSW,207,0.0,1.0,83,0.00,,,0.00,weatherlink.com 1.10,2013-05-11 02:40:00,
2013-05-10 22:55:00,63.0,57.0,30.01,North,11,0.0,2.0,82,0.00,,,0.00,weatherlink.com 1.10,2013-05-11 02:55:00,
2013-05-10 23:10:00,63.2,58.0,30.01,SE,131,2.0,2.0,82,0.00,,,0.00,weatherlink.com 1.10,2013-05-11 03:10:00,
2013-05-10 23:25:00,63.2,58.0,30.01,East,99,0.0,3.0,83,0.00,,,0.00,weatherlink.com 1.10,2013-05-11 03:25:00,
2013-05-10 23:40:00,62.8,58.0,30.00,East,98,0.0,1.0,84,0.00,,,0.00,weatherlink.com 1.10,2013-05-11 03:40:00,
2013-05-10 23:55:00,62.3,57.0,30.00,SW,222,1.0,1.0,84,0.00,,,0.00,weatherlink.com 1.10,2013-05-11 03:55:00,